sensor_id;sensor_type;location;lat;lon;timestamp;P1;durP1;ratioP1;P2;durP2;ratioP2
20415;SDS011;10367;52.202;5.996;2023-03-16T00:01:28;12.50;;;6.80;;
20415;SDS011;10367;52.202;5.996;2023-03-16T00:04:01;18.63;;;8.37;;
20415;SDS011;10367;52.202;5.996;2023-03-16T00:06:32;20.13;;;8.80;;
20415;SDS011;10367;52.202;5.996;2023-03-16T00:09:06;16.40;;;8.23;;
20415;SDS011;10367;52.202;5.996;2023-03-16T00:11:40;13.53;;;7.70;;
20415;SDS011;10367;52.202;5.996;2023-03-16T00:14:11;26.00;;;10.13;;
20415;SDS011;10367;52.202;5.996;2023-03-16T00:16:45;18.87;;;8.27;;
20415;SDS011;10367;52.202;5.996;2023-03-16T00:19:19;20.23;;;9.17;;
20415;SDS011;10367;52.202;5.996;2023-03-16T00:22:10;18.10;;;8.53;;
20415;SDS011;10367;52.202;5.996;2023-03-16T00:24:41;18.50;;;8.67;;
20415;SDS011;10367;52.202;5.996;2023-03-16T00:27:11;24.13;;;9.43;;
20415;SDS011;10367;52.202;5.996;2023-03-16T00:29:43;18.50;;;8.30;;
20415;SDS011;10367;52.202;5.996;2023-03-16T00:32:15;18.87;;;8.73;;
20415;SDS011;10367;52.202;5.996;2023-03-16T00:34:49;14.10;;;7.10;;
20415;SDS011;10367;52.202;5.996;2023-03-16T00:37:23;11.43;;;6.60;;
20415;SDS011;10367;52.202;5.996;2023-03-16T00:40:04;19.20;;;9.00;;
20415;SDS011;10367;52.202;5.996;2023-03-16T00:42:37;15.77;;;8.47;;
20415;SDS011;10367;52.202;5.996;2023-03-16T00:45:10;23.77;;;9.90;;
20415;SDS011;10367;52.202;5.996;2023-03-16T00:47:49;21.70;;;9.67;;
20415;SDS011;10367;52.202;5.996;2023-03-16T00:50:21;18.20;;;8.97;;
20415;SDS011;10367;52.202;5.996;2023-03-16T00:52:58;14.23;;;7.63;;
20415;SDS011;10367;52.202;5.996;2023-03-16T00:55:32;13.43;;;7.40;;
20415;SDS011;10367;52.202;5.996;2023-03-16T00:58:12;23.87;;;9.87;;
20415;SDS011;10367;52.202;5.996;2023-03-16T01:00:56;18.83;;;8.83;;
20415;SDS011;10367;52.202;5.996;2023-03-16T01:03:28;13.50;;;7.40;;
20415;SDS011;10367;52.202;5.996;2023-03-16T01:06:02;23.03;;;9.20;;
20415;SDS011;10367;52.202;5.996;2023-03-16T01:08:44;18.47;;;8.07;;
20415;SDS011;10367;52.202;5.996;2023-03-16T01:11:20;30.97;;;11.50;;
20415;SDS011;10367;52.202;5.996;2023-03-16T01:14:02;20.90;;;8.70;;
20415;SDS011;10367;52.202;5.996;2023-03-16T01:16:35;12.37;;;7.40;;
20415;SDS011;10367;52.202;5.996;2023-03-16T01:19:15;11.30;;;7.70;;
20415;SDS011;10367;52.202;5.996;2023-03-16T01:22:06;12.57;;;6.73;;
20415;SDS011;10367;52.202;5.996;2023-03-16T01:24:38;13.10;;;7.43;;
20415;SDS011;10367;52.202;5.996;2023-03-16T01:27:10;27.77;;;11.40;;
20415;SDS011;10367;52.202;5.996;2023-03-16T01:29:40;18.23;;;8.83;;
20415;SDS011;10367;52.202;5.996;2023-03-16T01:32:12;27.90;;;11.20;;
20415;SDS011;10367;52.202;5.996;2023-03-16T01:34:52;17.57;;;8.07;;
20415;SDS011;10367;52.202;5.996;2023-03-16T01:37:23;12.53;;;7.13;;
20415;SDS011;10367;52.202;5.996;2023-03-16T01:40:04;24.70;;;10.30;;
20415;SDS011;10367;52.202;5.996;2023-03-16T01:42:44;23.57;;;10.03;;
20415;SDS011;10367;52.202;5.996;2023-03-16T01:48:30;14.70;;;7.97;;
20415;SDS011;10367;52.202;5.996;2023-03-16T01:51:03;16.47;;;8.70;;
20415;SDS011;10367;52.202;5.996;2023-03-16T01:53:34;17.53;;;8.40;;
20415;SDS011;10367;52.202;5.996;2023-03-16T01:56:11;18.63;;;8.83;;
20415;SDS011;10367;52.202;5.996;2023-03-16T01:58:49;20.47;;;8.43;;
20415;SDS011;10367;52.202;5.996;2023-03-16T02:01:31;18.20;;;8.73;;
20415;SDS011;10367;52.202;5.996;2023-03-16T02:04:14;21.53;;;10.10;;
20415;SDS011;10367;52.202;5.996;2023-03-16T02:06:52;16.17;;;7.90;;
20415;SDS011;10367;52.202;5.996;2023-03-16T02:09:24;18.77;;;7.57;;
20415;SDS011;10367;52.202;5.996;2023-03-16T02:12:00;11.83;;;7.27;;
20415;SDS011;10367;52.202;5.996;2023-03-16T02:14:38;22.17;;;9.80;;
20415;SDS011;10367;52.202;5.996;2023-03-16T02:17:09;24.63;;;10.23;;
20415;SDS011;10367;52.202;5.996;2023-03-16T02:19:42;18.40;;;9.13;;
20415;SDS011;10367;52.202;5.996;2023-03-16T02:22:24;23.43;;;10.20;;
20415;SDS011;10367;52.202;5.996;2023-03-16T02:24:58;16.73;;;7.73;;
20415;SDS011;10367;52.202;5.996;2023-03-16T02:27:33;14.47;;;7.53;;
20415;SDS011;10367;52.202;5.996;2023-03-16T02:30:14;19.57;;;8.73;;
20415;SDS011;10367;52.202;5.996;2023-03-16T02:32:53;11.93;;;7.37;;
20415;SDS011;10367;52.202;5.996;2023-03-16T02:35:33;16.07;;;8.10;;
20415;SDS011;10367;52.202;5.996;2023-03-16T02:38:07;18.43;;;9.20;;
20415;SDS011;10367;52.202;5.996;2023-03-16T02:40:36;17.17;;;8.37;;
20415;SDS011;10367;52.202;5.996;2023-03-16T02:43:06;20.60;;;8.87;;
20415;SDS011;10367;52.202;5.996;2023-03-16T02:45:49;18.40;;;9.03;;
20415;SDS011;10367;52.202;5.996;2023-03-16T02:48:27;13.83;;;7.43;;
20415;SDS011;10367;52.202;5.996;2023-03-16T02:51:05;18.50;;;9.27;;
20415;SDS011;10367;52.202;5.996;2023-03-16T02:53:34;16.60;;;8.97;;
20415;SDS011;10367;52.202;5.996;2023-03-16T02:56:06;17.60;;;8.80;;
20415;SDS011;10367;52.202;5.996;2023-03-16T02:58:36;15.80;;;8.50;;
20415;SDS011;10367;52.202;5.996;2023-03-16T03:01:20;16.20;;;8.47;;
20415;SDS011;10367;52.202;5.996;2023-03-16T03:03:49;24.87;;;9.07;;
20415;SDS011;10367;52.202;5.996;2023-03-16T03:06:25;15.77;;;7.60;;
20415;SDS011;10367;52.202;5.996;2023-03-16T03:08:54;11.43;;;7.13;;
20415;SDS011;10367;52.202;5.996;2023-03-16T03:11:31;17.47;;;8.47;;
20415;SDS011;10367;52.202;5.996;2023-03-16T03:14:06;21.93;;;8.60;;
20415;SDS011;10367;52.202;5.996;2023-03-16T03:16:39;15.03;;;8.30;;
20415;SDS011;10367;52.202;5.996;2023-03-16T03:19:13;23.17;;;10.27;;
20415;SDS011;10367;52.202;5.996;2023-03-16T03:21:50;10.93;;;7.43;;
20415;SDS011;10367;52.202;5.996;2023-03-16T03:24:29;14.77;;;8.37;;
20415;SDS011;10367;52.202;5.996;2023-03-16T03:27:06;22.50;;;9.20;;
20415;SDS011;10367;52.202;5.996;2023-03-16T03:29:39;15.27;;;7.93;;
20415;SDS011;10367;52.202;5.996;2023-03-16T03:32:20;16.63;;;9.10;;
20415;SDS011;10367;52.202;5.996;2023-03-16T03:34:56;12.87;;;7.83;;
20415;SDS011;10367;52.202;5.996;2023-03-16T03:37:27;17.60;;;7.73;;
20415;SDS011;10367;52.202;5.996;2023-03-16T03:39:56;17.33;;;8.47;;
20415;SDS011;10367;52.202;5.996;2023-03-16T03:42:40;20.57;;;9.47;;
20415;SDS011;10367;52.202;5.996;2023-03-16T03:45:15;19.60;;;8.70;;
20415;SDS011;10367;52.202;5.996;2023-03-16T03:47:53;18.67;;;8.43;;
20415;SDS011;10367;52.202;5.996;2023-03-16T03:50:43;13.67;;;7.83;;
20415;SDS011;10367;52.202;5.996;2023-03-16T03:53:15;20.50;;;9.07;;
20415;SDS011;10367;52.202;5.996;2023-03-16T03:55:52;21.00;;;9.63;;
20415;SDS011;10367;52.202;5.996;2023-03-16T03:58:24;12.93;;;7.37;;
20415;SDS011;10367;52.202;5.996;2023-03-16T04:01:13;18.70;;;8.37;;
20415;SDS011;10367;52.202;5.996;2023-03-16T04:03:48;12.40;;;7.63;;
20415;SDS011;10367;52.202;5.996;2023-03-16T04:06:17;20.70;;;9.93;;
20415;SDS011;10367;52.202;5.996;2023-03-16T04:08:51;17.33;;;8.63;;
20415;SDS011;10367;52.202;5.996;2023-03-16T04:11:33;21.43;;;9.67;;
20415;SDS011;10367;52.202;5.996;2023-03-16T04:14:05;17.77;;;8.40;;
20415;SDS011;10367;52.202;5.996;2023-03-16T04:16:40;15.90;;;7.90;;
20415;SDS011;10367;52.202;5.996;2023-03-16T04:19:19;18.07;;;8.93;;
20415;SDS011;10367;52.202;5.996;2023-03-16T04:22:06;19.40;;;8.87;;
20415;SDS011;10367;52.202;5.996;2023-03-16T04:24:37;19.67;;;8.43;;
20415;SDS011;10367;52.202;5.996;2023-03-16T04:27:13;16.37;;;8.63;;
20415;SDS011;10367;52.202;5.996;2023-03-16T04:29:55;12.97;;;8.23;;
20415;SDS011;10367;52.202;5.996;2023-03-16T04:32:32;17.43;;;7.87;;
20415;SDS011;10367;52.202;5.996;2023-03-16T04:35:39;26.50;;;10.67;;
20415;SDS011;10367;52.202;5.996;2023-03-16T04:38:13;19.43;;;9.20;;
20415;SDS011;10367;52.202;5.996;2023-03-16T04:40:45;15.53;;;7.93;;
20415;SDS011;10367;52.202;5.996;2023-03-16T04:43:33;16.27;;;8.73;;
20415;SDS011;10367;52.202;5.996;2023-03-16T04:46:23;20.30;;;8.93;;
20415;SDS011;10367;52.202;5.996;2023-03-16T04:49:09;19.53;;;9.17;;
20415;SDS011;10367;52.202;5.996;2023-03-16T04:51:43;16.13;;;8.33;;
20415;SDS011;10367;52.202;5.996;2023-03-16T04:54:37;18.67;;;7.80;;
20415;SDS011;10367;52.202;5.996;2023-03-16T04:57:17;20.87;;;9.40;;
20415;SDS011;10367;52.202;5.996;2023-03-16T05:00:11;14.50;;;7.83;;
20415;SDS011;10367;52.202;5.996;2023-03-16T05:02:47;18.60;;;9.27;;
20415;SDS011;10367;52.202;5.996;2023-03-16T05:05:28;21.20;;;9.43;;
20415;SDS011;10367;52.202;5.996;2023-03-16T05:08:07;19.43;;;8.77;;
20415;SDS011;10367;52.202;5.996;2023-03-16T05:10:56;10.00;;;6.57;;
20415;SDS011;10367;52.202;5.996;2023-03-16T05:13:37;24.13;;;10.17;;
20415;SDS011;10367;52.202;5.996;2023-03-16T05:16:14;13.53;;;8.17;;
20415;SDS011;10367;52.202;5.996;2023-03-16T05:18:57;14.90;;;8.17;;
20415;SDS011;10367;52.202;5.996;2023-03-16T05:21:38;12.43;;;6.97;;
20415;SDS011;10367;52.202;5.996;2023-03-16T05:24:21;19.27;;;9.03;;
20415;SDS011;10367;52.202;5.996;2023-03-16T05:27:04;12.70;;;6.67;;
20415;SDS011;10367;52.202;5.996;2023-03-16T05:29:47;15.27;;;8.50;;
20415;SDS011;10367;52.202;5.996;2023-03-16T05:32:31;15.87;;;7.97;;
20415;SDS011;10367;52.202;5.996;2023-03-16T05:35:08;18.13;;;8.77;;
20415;SDS011;10367;52.202;5.996;2023-03-16T05:37:50;17.07;;;8.57;;
20415;SDS011;10367;52.202;5.996;2023-03-16T05:40:41;15.57;;;7.90;;
20415;SDS011;10367;52.202;5.996;2023-03-16T05:43:21;18.57;;;8.63;;
20415;SDS011;10367;52.202;5.996;2023-03-16T05:45:57;12.93;;;7.53;;
20415;SDS011;10367;52.202;5.996;2023-03-16T05:48:30;15.50;;;8.10;;
20415;SDS011;10367;52.202;5.996;2023-03-16T05:51:03;18.17;;;8.60;;
20415;SDS011;10367;52.202;5.996;2023-03-16T05:53:37;20.87;;;9.53;;
20415;SDS011;10367;52.202;5.996;2023-03-16T05:56:12;17.03;;;8.10;;
20415;SDS011;10367;52.202;5.996;2023-03-16T05:58:42;16.90;;;8.70;;
20415;SDS011;10367;52.202;5.996;2023-03-16T06:01:14;17.13;;;8.97;;
20415;SDS011;10367;52.202;5.996;2023-03-16T06:03:52;19.63;;;8.27;;
20415;SDS011;10367;52.202;5.996;2023-03-16T06:06:31;14.53;;;7.93;;
20415;SDS011;10367;52.202;5.996;2023-03-16T06:09:03;16.70;;;8.40;;
20415;SDS011;10367;52.202;5.996;2023-03-16T06:11:44;15.07;;;8.60;;
20415;SDS011;10367;52.202;5.996;2023-03-16T06:14:18;22.77;;;9.43;;
20415;SDS011;10367;52.202;5.996;2023-03-16T06:16:53;15.57;;;8.10;;
20415;SDS011;10367;52.202;5.996;2023-03-16T06:19:25;25.33;;;11.30;;
20415;SDS011;10367;52.202;5.996;2023-03-16T06:22:20;20.77;;;9.57;;
20415;SDS011;10367;52.202;5.996;2023-03-16T06:25:04;20.90;;;10.20;;
20415;SDS011;10367;52.202;5.996;2023-03-16T06:30:52;14.87;;;8.40;;
20415;SDS011;10367;52.202;5.996;2023-03-16T06:33:24;12.30;;;7.67;;
20415;SDS011;10367;52.202;5.996;2023-03-16T06:38:46;14.03;;;8.40;;
20415;SDS011;10367;52.202;5.996;2023-03-16T06:41:26;19.03;;;10.17;;
20415;SDS011;10367;52.202;5.996;2023-03-16T06:44:12;20.87;;;9.93;;
20415;SDS011;10367;52.202;5.996;2023-03-16T06:46:51;17.57;;;8.97;;
20415;SDS011;10367;52.202;5.996;2023-03-16T06:49:37;15.60;;;8.37;;
20415;SDS011;10367;52.202;5.996;2023-03-16T06:52:26;16.83;;;8.77;;
20415;SDS011;10367;52.202;5.996;2023-03-16T06:54:56;19.67;;;8.73;;
20415;SDS011;10367;52.202;5.996;2023-03-16T06:57:28;29.10;;;12.03;;
20415;SDS011;10367;52.202;5.996;2023-03-16T07:00:08;17.93;;;8.97;;
20415;SDS011;10367;52.202;5.996;2023-03-16T07:02:54;13.27;;;8.17;;
20415;SDS011;10367;52.202;5.996;2023-03-16T07:05:41;18.17;;;9.27;;
20415;SDS011;10367;52.202;5.996;2023-03-16T07:08:36;18.77;;;9.67;;
20415;SDS011;10367;52.202;5.996;2023-03-16T07:11:24;17.43;;;8.90;;
20415;SDS011;10367;52.202;5.996;2023-03-16T07:14:10;14.87;;;8.13;;
20415;SDS011;10367;52.202;5.996;2023-03-16T07:16:45;14.93;;;7.90;;
20415;SDS011;10367;52.202;5.996;2023-03-16T07:19:18;19.47;;;9.73;;
20415;SDS011;10367;52.202;5.996;2023-03-16T07:22:02;18.57;;;9.33;;
20415;SDS011;10367;52.202;5.996;2023-03-16T07:24:36;15.47;;;8.43;;
20415;SDS011;10367;52.202;5.996;2023-03-16T07:27:06;12.83;;;7.93;;
20415;SDS011;10367;52.202;5.996;2023-03-16T07:29:40;20.50;;;9.40;;
20415;SDS011;10367;52.202;5.996;2023-03-16T07:32:18;19.33;;;10.10;;
20415;SDS011;10367;52.202;5.996;2023-03-16T07:34:57;13.13;;;8.10;;
20415;SDS011;10367;52.202;5.996;2023-03-16T07:37:29;11.20;;;7.60;;
20415;SDS011;10367;52.202;5.996;2023-03-16T07:40:12;19.83;;;9.73;;
20415;SDS011;10367;52.202;5.996;2023-03-16T07:42:48;11.27;;;8.17;;
20415;SDS011;10367;52.202;5.996;2023-03-16T07:45:21;14.77;;;8.70;;
20415;SDS011;10367;52.202;5.996;2023-03-16T07:47:59;11.10;;;7.57;;
20415;SDS011;10367;52.202;5.996;2023-03-16T07:50:35;12.50;;;8.53;;
20415;SDS011;10367;52.202;5.996;2023-03-16T07:53:08;10.37;;;8.17;;
20415;SDS011;10367;52.202;5.996;2023-03-16T07:55:38;13.93;;;8.97;;
20415;SDS011;10367;52.202;5.996;2023-03-16T07:58:16;21.67;;;10.57;;
20415;SDS011;10367;52.202;5.996;2023-03-16T08:00:51;13.17;;;8.87;;
20415;SDS011;10367;52.202;5.996;2023-03-16T08:03:38;24.80;;;11.53;;
20415;SDS011;10367;52.202;5.996;2023-03-16T08:06:19;11.90;;;8.20;;
20415;SDS011;10367;52.202;5.996;2023-03-16T08:08:56;11.03;;;8.00;;
20415;SDS011;10367;52.202;5.996;2023-03-16T08:11:29;19.17;;;10.30;;
20415;SDS011;10367;52.202;5.996;2023-03-16T08:14:01;15.77;;;9.63;;
20415;SDS011;10367;52.202;5.996;2023-03-16T08:16:44;15.93;;;9.33;;
20415;SDS011;10367;52.202;5.996;2023-03-16T08:19:18;11.20;;;8.53;;
20415;SDS011;10367;52.202;5.996;2023-03-16T08:21:51;19.23;;;10.00;;
20415;SDS011;10367;52.202;5.996;2023-03-16T08:24:42;14.30;;;8.63;;
20415;SDS011;10367;52.202;5.996;2023-03-16T08:27:11;16.13;;;9.37;;
20415;SDS011;10367;52.202;5.996;2023-03-16T08:29:45;12.23;;;8.50;;
20415;SDS011;10367;52.202;5.996;2023-03-16T08:32:22;23.33;;;11.47;;
20415;SDS011;10367;52.202;5.996;2023-03-16T08:34:56;15.37;;;9.33;;
20415;SDS011;10367;52.202;5.996;2023-03-16T08:37:28;26.57;;;11.67;;
20415;SDS011;10367;52.202;5.996;2023-03-16T08:40:01;12.30;;;8.10;;
20415;SDS011;10367;52.202;5.996;2023-03-16T08:42:43;14.83;;;8.63;;
20415;SDS011;10367;52.202;5.996;2023-03-16T08:45:30;15.57;;;9.63;;
20415;SDS011;10367;52.202;5.996;2023-03-16T08:48:10;19.43;;;10.23;;
20415;SDS011;10367;52.202;5.996;2023-03-16T08:50:50;12.03;;;8.40;;
20415;SDS011;10367;52.202;5.996;2023-03-16T08:53:25;23.83;;;9.83;;
20415;SDS011;10367;52.202;5.996;2023-03-16T08:56:00;10.90;;;8.57;;
20415;SDS011;10367;52.202;5.996;2023-03-16T08:58:47;19.33;;;10.73;;
20415;SDS011;10367;52.202;5.996;2023-03-16T09:01:19;19.97;;;10.07;;
20415;SDS011;10367;52.202;5.996;2023-03-16T09:04:04;17.97;;;10.13;;
20415;SDS011;10367;52.202;5.996;2023-03-16T09:06:38;24.57;;;11.50;;
20415;SDS011;10367;52.202;5.996;2023-03-16T09:09:28;18.07;;;10.23;;
20415;SDS011;10367;52.202;5.996;2023-03-16T09:11:57;12.50;;;9.43;;
20415;SDS011;10367;52.202;5.996;2023-03-16T09:14:30;21.77;;;11.20;;
20415;SDS011;10367;52.202;5.996;2023-03-16T09:17:04;13.90;;;9.07;;
20415;SDS011;10367;52.202;5.996;2023-03-16T09:19:44;19.57;;;9.90;;
20415;SDS011;10367;52.202;5.996;2023-03-16T09:22:46;13.50;;;8.83;;
20415;SDS011;10367;52.202;5.996;2023-03-16T09:25:18;17.97;;;10.50;;
20415;SDS011;10367;52.202;5.996;2023-03-16T09:27:50;11.13;;;8.90;;
20415;SDS011;10367;52.202;5.996;2023-03-16T09:30:29;18.23;;;10.70;;
20415;SDS011;10367;52.202;5.996;2023-03-16T09:33:14;18.70;;;10.90;;
20415;SDS011;10367;52.202;5.996;2023-03-16T09:35:51;10.97;;;8.50;;
20415;SDS011;10367;52.202;5.996;2023-03-16T09:38:25;26.37;;;12.03;;
20415;SDS011;10367;52.202;5.996;2023-03-16T09:41:09;16.10;;;9.83;;
20415;SDS011;10367;52.202;5.996;2023-03-16T09:44:00;16.17;;;10.23;;
20415;SDS011;10367;52.202;5.996;2023-03-16T09:46:55;13.20;;;9.33;;
20415;SDS011;10367;52.202;5.996;2023-03-16T09:49:41;16.40;;;10.20;;
20415;SDS011;10367;52.202;5.996;2023-03-16T09:52:21;23.53;;;12.33;;
20415;SDS011;10367;52.202;5.996;2023-03-16T09:55:09;11.10;;;9.63;;
20415;SDS011;10367;52.202;5.996;2023-03-16T09:57:55;12.50;;;9.43;;
20415;SDS011;10367;52.202;5.996;2023-03-16T10:00:43;17.03;;;10.40;;
20415;SDS011;10367;52.202;5.996;2023-03-16T10:03:33;17.80;;;10.70;;
20415;SDS011;10367;52.202;5.996;2023-03-16T10:06:29;18.80;;;11.83;;
20415;SDS011;10367;52.202;5.996;2023-03-16T10:09:02;12.37;;;9.90;;
20415;SDS011;10367;52.202;5.996;2023-03-16T10:11:52;12.30;;;9.93;;
20415;SDS011;10367;52.202;5.996;2023-03-16T10:14:36;21.10;;;11.07;;
20415;SDS011;10367;52.202;5.996;2023-03-16T10:17:18;16.13;;;10.27;;
20415;SDS011;10367;52.202;5.996;2023-03-16T10:20:06;17.27;;;10.53;;
20415;SDS011;10367;52.202;5.996;2023-03-16T10:22:46;13.47;;;10.37;;
20415;SDS011;10367;52.202;5.996;2023-03-16T10:25:18;12.67;;;9.27;;
20415;SDS011;10367;52.202;5.996;2023-03-16T10:27:54;10.53;;;9.03;;
20415;SDS011;10367;52.202;5.996;2023-03-16T10:30:31;11.37;;;9.37;;
20415;SDS011;10367;52.202;5.996;2023-03-16T10:33:04;14.03;;;9.43;;
20415;SDS011;10367;52.202;5.996;2023-03-16T10:35:45;11.87;;;10.37;;
20415;SDS011;10367;52.202;5.996;2023-03-16T10:38:30;12.53;;;9.60;;
20415;SDS011;10367;52.202;5.996;2023-03-16T10:41:18;17.73;;;10.37;;
20415;SDS011;10367;52.202;5.996;2023-03-16T10:44:00;10.10;;;9.10;;
20415;SDS011;10367;52.202;5.996;2023-03-16T10:46:57;17.77;;;11.50;;
20415;SDS011;10367;52.202;5.996;2023-03-16T10:49:42;23.70;;;12.33;;
20415;SDS011;10367;52.202;5.996;2023-03-16T10:52:29;16.40;;;11.37;;
20415;SDS011;10367;52.202;5.996;2023-03-16T10:55:06;11.77;;;10.53;;
20415;SDS011;10367;52.202;5.996;2023-03-16T10:57:42;24.23;;;13.27;;
20415;SDS011;10367;52.202;5.996;2023-03-16T11:00:25;11.23;;;10.00;;
20415;SDS011;10367;52.202;5.996;2023-03-16T11:03:00;12.80;;;10.77;;
20415;SDS011;10367;52.202;5.996;2023-03-16T11:05:43;11.67;;;10.27;;
20415;SDS011;10367;52.202;5.996;2023-03-16T11:08:26;16.63;;;11.97;;
20415;SDS011;10367;52.202;5.996;2023-03-16T11:11:07;16.20;;;11.40;;
20415;SDS011;10367;52.202;5.996;2023-03-16T11:13:46;13.27;;;11.87;;
20415;SDS011;10367;52.202;5.996;2023-03-16T11:16:22;12.47;;;11.17;;
20415;SDS011;10367;52.202;5.996;2023-03-16T11:18:59;16.37;;;12.00;;
20415;SDS011;10367;52.202;5.996;2023-03-16T11:21:37;19.63;;;13.70;;
20415;SDS011;10367;52.202;5.996;2023-03-16T11:24:32;22.00;;;13.93;;
20415;SDS011;10367;52.202;5.996;2023-03-16T11:27:16;12.97;;;11.67;;
20415;SDS011;10367;52.202;5.996;2023-03-16T11:32:54;13.90;;;12.07;;
20415;SDS011;10367;52.202;5.996;2023-03-16T11:35:38;19.03;;;14.17;;
20415;SDS011;10367;52.202;5.996;2023-03-16T11:38:31;19.40;;;14.37;;
20415;SDS011;10367;52.202;5.996;2023-03-16T11:41:24;13.07;;;11.70;;
20415;SDS011;10367;52.202;5.996;2023-03-16T11:44:00;21.87;;;15.10;;
20415;SDS011;10367;52.202;5.996;2023-03-16T11:46:40;19.07;;;13.97;;
20415;SDS011;10367;52.202;5.996;2023-03-16T11:49:34;14.83;;;13.17;;
20415;SDS011;10367;52.202;5.996;2023-03-16T11:52:33;19.23;;;13.33;;
20415;SDS011;10367;52.202;5.996;2023-03-16T11:58:20;14.83;;;12.70;;
20415;SDS011;10367;52.202;5.996;2023-03-16T12:01:05;13.13;;;11.93;;
20415;SDS011;10367;52.202;5.996;2023-03-16T12:03:53;16.90;;;11.93;;
20415;SDS011;10367;52.202;5.996;2023-03-16T12:06:48;13.90;;;11.90;;
20415;SDS011;10367;52.202;5.996;2023-03-16T12:09:42;23.70;;;14.90;;
20415;SDS011;10367;52.202;5.996;2023-03-16T12:12:29;23.50;;;14.30;;
20415;SDS011;10367;52.202;5.996;2023-03-16T12:15:16;13.90;;;12.23;;
20415;SDS011;10367;52.202;5.996;2023-03-16T12:18:11;18.60;;;13.20;;
20415;SDS011;10367;52.202;5.996;2023-03-16T12:20:47;13.57;;;12.17;;
20415;SDS011;10367;52.202;5.996;2023-03-16T12:23:23;12.67;;;11.47;;
20415;SDS011;10367;52.202;5.996;2023-03-16T12:25:57;14.63;;;11.13;;
20415;SDS011;10367;52.202;5.996;2023-03-16T12:28:28;21.70;;;15.30;;
20415;SDS011;10367;52.202;5.996;2023-03-16T12:31:02;13.67;;;12.37;;
20415;SDS011;10367;52.202;5.996;2023-03-16T12:34:01;19.03;;;14.00;;
20415;SDS011;10367;52.202;5.996;2023-03-16T12:36:51;13.83;;;12.43;;
20415;SDS011;10367;52.202;5.996;2023-03-16T12:39:55;15.33;;;12.57;;
20415;SDS011;10367;52.202;5.996;2023-03-16T12:42:49;14.03;;;12.60;;
20415;SDS011;10367;52.202;5.996;2023-03-16T12:45:33;15.23;;;13.37;;
20415;SDS011;10367;52.202;5.996;2023-03-16T12:48:16;14.90;;;13.30;;
20415;SDS011;10367;52.202;5.996;2023-03-16T12:50:58;13.00;;;12.00;;
20415;SDS011;10367;52.202;5.996;2023-03-16T12:53:43;16.60;;;14.13;;
20415;SDS011;10367;52.202;5.996;2023-03-16T12:56:16;18.43;;;14.07;;
20415;SDS011;10367;52.202;5.996;2023-03-16T12:58:47;14.60;;;13.10;;
20415;SDS011;10367;52.202;5.996;2023-03-16T13:01:19;15.13;;;13.37;;
20415;SDS011;10367;52.202;5.996;2023-03-16T13:03:58;13.57;;;12.47;;
20415;SDS011;10367;52.202;5.996;2023-03-16T13:06:30;18.63;;;15.80;;
20415;SDS011;10367;52.202;5.996;2023-03-16T13:09:04;14.57;;;13.23;;
20415;SDS011;10367;52.202;5.996;2023-03-16T13:11:46;13.90;;;12.50;;
20415;SDS011;10367;52.202;5.996;2023-03-16T13:14:32;20.87;;;16.60;;
20415;SDS011;10367;52.202;5.996;2023-03-16T13:17:05;14.87;;;13.47;;
20415;SDS011;10367;52.202;5.996;2023-03-16T13:20:00;15.40;;;13.90;;
20415;SDS011;10367;52.202;5.996;2023-03-16T13:23:07;14.93;;;13.33;;
20415;SDS011;10367;52.202;5.996;2023-03-16T13:25:57;14.97;;;13.67;;
20415;SDS011;10367;52.202;5.996;2023-03-16T13:28:43;18.53;;;15.17;;
20415;SDS011;10367;52.202;5.996;2023-03-16T13:31:18;15.20;;;13.77;;
20415;SDS011;10367;52.202;5.996;2023-03-16T13:33:53;15.57;;;14.03;;
20415;SDS011;10367;52.202;5.996;2023-03-16T13:36:26;18.87;;;16.20;;
20415;SDS011;10367;52.202;5.996;2023-03-16T13:39:02;15.67;;;14.40;;
20415;SDS011;10367;52.202;5.996;2023-03-16T13:41:33;24.17;;;16.60;;
20415;SDS011;10367;52.202;5.996;2023-03-16T13:44:10;18.03;;;16.00;;
20415;SDS011;10367;52.202;5.996;2023-03-16T13:46:40;21.43;;;17.03;;
20415;SDS011;10367;52.202;5.996;2023-03-16T13:49:10;18.93;;;15.47;;
20415;SDS011;10367;52.202;5.996;2023-03-16T13:51:39;18.13;;;16.17;;
20415;SDS011;10367;52.202;5.996;2023-03-16T13:54:19;16.60;;;14.87;;
20415;SDS011;10367;52.202;5.996;2023-03-16T13:56:51;16.50;;;14.93;;
20415;SDS011;10367;52.202;5.996;2023-03-16T13:59:24;16.10;;;14.63;;
20415;SDS011;10367;52.202;5.996;2023-03-16T14:01:54;15.93;;;14.30;;
20415;SDS011;10367;52.202;5.996;2023-03-16T14:04:26;21.23;;;17.20;;
20415;SDS011;10367;52.202;5.996;2023-03-16T14:06:57;15.40;;;14.17;;
20415;SDS011;10367;52.202;5.996;2023-03-16T14:09:28;20.80;;;16.27;;
20415;SDS011;10367;52.202;5.996;2023-03-16T14:12:00;16.13;;;14.73;;
20415;SDS011;10367;52.202;5.996;2023-03-16T14:14:35;19.57;;;15.70;;
20415;SDS011;10367;52.202;5.996;2023-03-16T14:17:08;16.20;;;14.70;;
20415;SDS011;10367;52.202;5.996;2023-03-16T14:19:40;16.00;;;14.53;;
20415;SDS011;10367;52.202;5.996;2023-03-16T14:22:12;17.10;;;15.37;;
20415;SDS011;10367;52.202;5.996;2023-03-16T14:24:44;16.83;;;14.80;;
20415;SDS011;10367;52.202;5.996;2023-03-16T14:27:21;19.60;;;15.73;;
20415;SDS011;10367;52.202;5.996;2023-03-16T14:29:59;16.57;;;15.10;;
20415;SDS011;10367;52.202;5.996;2023-03-16T14:32:30;20.30;;;15.97;;
20415;SDS011;10367;52.202;5.996;2023-03-16T14:35:09;15.13;;;13.77;;
20415;SDS011;10367;52.202;5.996;2023-03-16T14:37:41;15.53;;;14.07;;
20415;SDS011;10367;52.202;5.996;2023-03-16T14:40:20;16.43;;;14.77;;
20415;SDS011;10367;52.202;5.996;2023-03-16T14:42:53;15.50;;;14.23;;
20415;SDS011;10367;52.202;5.996;2023-03-16T14:45:28;18.10;;;16.13;;
20415;SDS011;10367;52.202;5.996;2023-03-16T14:48:00;15.50;;;14.13;;
20415;SDS011;10367;52.202;5.996;2023-03-16T14:50:32;22.73;;;16.43;;
20415;SDS011;10367;52.202;5.996;2023-03-16T14:53:01;19.33;;;16.20;;
20415;SDS011;10367;52.202;5.996;2023-03-16T14:55:31;18.70;;;15.40;;
20415;SDS011;10367;52.202;5.996;2023-03-16T14:58:00;16.30;;;14.73;;
20415;SDS011;10367;52.202;5.996;2023-03-16T15:00:31;22.50;;;17.40;;
20415;SDS011;10367;52.202;5.996;2023-03-16T15:03:16;16.30;;;14.70;;
20415;SDS011;10367;52.202;5.996;2023-03-16T15:05:45;15.87;;;14.43;;
20415;SDS011;10367;52.202;5.996;2023-03-16T15:08:18;14.93;;;13.73;;
20415;SDS011;10367;52.202;5.996;2023-03-16T15:10:52;21.37;;;16.07;;
20415;SDS011;10367;52.202;5.996;2023-03-16T15:13:22;14.47;;;13.27;;
20415;SDS011;10367;52.202;5.996;2023-03-16T15:16:20;14.30;;;13.20;;
20415;SDS011;10367;52.202;5.996;2023-03-16T15:18:51;15.83;;;14.43;;
20415;SDS011;10367;52.202;5.996;2023-03-16T15:21:20;15.60;;;13.97;;
20415;SDS011;10367;52.202;5.996;2023-03-16T15:23:50;14.97;;;13.67;;
20415;SDS011;10367;52.202;5.996;2023-03-16T15:26:22;16.87;;;15.13;;
20415;SDS011;10367;52.202;5.996;2023-03-16T15:28:53;14.67;;;13.47;;
20415;SDS011;10367;52.202;5.996;2023-03-16T15:31:24;14.40;;;13.20;;
20415;SDS011;10367;52.202;5.996;2023-03-16T15:33:54;15.07;;;13.73;;
20415;SDS011;10367;52.202;5.996;2023-03-16T15:36:23;14.43;;;13.13;;
20415;SDS011;10367;52.202;5.996;2023-03-16T15:38:52;16.00;;;14.47;;
20415;SDS011;10367;52.202;5.996;2023-03-16T15:41:27;16.43;;;14.87;;
20415;SDS011;10367;52.202;5.996;2023-03-16T15:44:12;17.07;;;15.30;;
20415;SDS011;10367;52.202;5.996;2023-03-16T15:46:47;17.03;;;15.13;;
20415;SDS011;10367;52.202;5.996;2023-03-16T15:49:16;16.03;;;14.53;;